Time;durP1;ratioP1;P1;durP2;ratioP2;P2;SDS_P1;SDS_P2;PMS_P1;PMS_P2;Temp;Humidity;BMP_temperature;BMP_pressure;BME280_temperature;BME280_humidity;BME280_pressure;Samples;Min_cycle;Max_cycle;Signal;HPM_P1;HPM_P2
2023/07/22 00:02:22;;;;;;;30.30;14.57;;;;;;;14.93;100.00;101469.34;5011036;28;20034;-71
2023/07/22 00:04:48;;;;;;;30.58;15.95;;;;;;;14.86;100.00;101474.06;5010689;28;20076;-72
2023/07/22 00:07:14;;;;;;;31.33;16.83;;;;;;;14.88;100.00;101472.22;5010698;28;20512;-72
2023/07/22 00:09:41;;;;;;;29.60;16.10;;;;;;;14.84;100.00;101469.75;5010050;28;20037;-73
2023/07/22 00:12:07;;;;;;;27.67;15.38;;;;;;;14.77;100.00;101469.13;5010001;28;20030;-72
2023/07/22 00:14:32;;;;;;;29.73;16.25;;;;;;;14.73;100.00;101468.41;5009718;28;20534;-71
2023/07/22 00:16:57;;;;;;;31.20;16.52;;;;;;;14.68;100.00;101461.53;5010750;28;20029;-66
2023/07/22 00:19:23;;;;;;;36.50;16.98;;;;;;;14.65;100.00;101460.75;5011208;28;20161;-70
2023/07/22 00:21:48;;;;;;;29.73;15.18;;;;;;;14.64;100.00;101456.38;5010523;28;20033;-73
2023/07/22 00:24:14;;;;;;;30.75;15.98;;;;;;;14.61;100.00;101456.50;5010406;28;20042;-73
2023/07/22 00:26:39;;;;;;;28.50;15.07;;;;;;;14.60;100.00;101449.44;5011731;28;21069;-70
2023/07/22 00:29:05;;;;;;;29.48;15.63;;;;;;;14.57;100.00;101454.03;5030281;28;20029;-73
2023/07/22 00:31:31;;;;;;;32.10;16.95;;;;;;;14.56;100.00;101449.63;5029779;28;20500;-72
2023/07/22 00:33:56;;;;;;;29.08;15.68;;;;;;;14.52;100.00;101457.75;5030394;28;20027;-71
2023/07/22 00:36:21;;;;;;;30.52;15.15;;;;;;;14.50;100.00;101453.41;5030318;28;20033;-73
2023/07/22 00:38:47;;;;;;;31.55;16.33;;;;;;;14.48;100.00;101452.63;5029782;28;20021;-73
2023/07/22 00:41:12;;;;;;;29.90;15.43;;;;;;;14.45;100.00;101450.09;5017852;28;20465;-72
2023/07/22 00:43:38;;;;;;;28.98;16.05;;;;;;;14.44;100.00;101451.00;5010188;28;20130;-71
2023/07/22 00:46:03;;;;;;;29.48;15.80;;;;;;;14.42;100.00;101448.41;5009621;28;20033;-74
2023/07/22 00:48:29;;;;;;;31.33;15.30;;;;;;;14.40;100.00;101443.19;5009827;28;20045;-70
2023/07/22 00:50:55;;;;;;;35.03;15.38;;;;;;;14.40;100.00;101451.16;5010595;28;20496;-71
2023/07/22 00:53:20;;;;;;;32.33;15.70;;;;;;;14.39;100.00;101444.09;5010223;28;20089;-70
2023/07/22 00:55:46;;;;;;;34.42;16.60;;;;;;;14.39;100.00;101449.41;5024797;28;20025;-72
2023/07/22 00:58:11;;;;;;;30.55;15.57;;;;;;;14.39;100.00;101445.91;5010127;28;20124;-66
2023/07/22 01:00:36;;;;;;;32.53;16.80;;;;;;;14.37;100.00;101443.31;5025196;28;20225;-71
2023/07/22 01:03:02;;;;;;;32.28;15.70;;;;;;;14.39;100.00;101441.44;5007377;28;20064;-74
2023/07/22 01:05:27;;;;;;;28.65;15.75;;;;;;;14.36;100.00;101436.28;5007506;28;20109;-64
2023/07/22 01:07:53;;;;;;;31.63;15.68;;;;;;;14.35;100.00;101437.19;5023753;28;20029;-72
2023/07/22 01:10:19;;;;;;;31.58;15.05;;;;;;;14.35;100.00;101436.31;5009635;28;20040;-73
2023/07/22 01:12:45;;;;;;;36.13;16.75;;;;;;;14.35;100.00;101426.59;5008824;28;20044;-71
2023/07/22 01:15:10;;;;;;;29.50;15.15;;;;;;;14.36;100.00;101423.00;5009566;28;20533;-72
2023/07/22 01:17:37;;;;;;;30.83;14.73;;;;;;;14.39;100.00;101424.69;5009424;28;20547;-75
2023/07/22 01:20:03;;;;;;;30.17;14.52;;;;;;;14.37;100.00;101424.75;5009261;28;20444;-70
2023/07/22 01:22:29;;;;;;;30.88;15.38;;;;;;;14.38;100.00;101429.13;5009284;28;20022;-68
2023/07/22 01:24:54;;;;;;;25.85;14.05;;;;;;;14.40;100.00;101427.28;5008968;28;20447;-74
2023/07/22 01:27:20;;;;;;;26.83;14.63;;;;;;;14.41;100.00;101420.19;5009553;28;20109;-71
2023/07/22 01:29:45;;;;;;;25.83;14.23;;;;;;;14.46;100.00;101415.56;5009626;28;20029;-72
2023/07/22 01:32:10;;;;;;;26.08;14.45;;;;;;;14.52;100.00;101414.44;5007722;28;20026;-71
2023/07/22 01:34:36;;;;;;;28.73;14.93;;;;;;;14.51;100.00;101413.56;5009583;28;20037;-73
2023/07/22 01:37:01;;;;;;;30.83;14.57;;;;;;;14.55;100.00;101410.78;5009754;28;20109;-73
2023/07/22 01:39:29;;;;;;;24.52;13.13;;;;;;;14.60;100.00;101409.66;5030067;28;20384;-73
2023/07/22 01:41:55;;;;;;;22.58;12.40;;;;;;;14.59;100.00;101407.97;5028705;28;20372;-68
2023/07/22 01:44:20;;;;;;;25.90;13.07;;;;;;;14.64;100.00;101413.94;5028553;28;20107;-73
2023/07/22 01:46:46;;;;;;;21.88;12.68;;;;;;;14.67;100.00;101412.94;5029513;28;20032;-73
2023/07/22 01:49:12;;;;;;;26.75;12.95;;;;;;;14.65;100.00;101407.69;5029337;28;20464;-74
2023/07/22 01:51:38;;;;;;;21.38;12.05;;;;;;;14.65;100.00;101409.47;5028530;28;20036;-74
2023/07/22 01:54:04;;;;;;;21.98;11.38;;;;;;;14.68;100.00;101408.47;5028870;28;20383;-73
2023/07/22 01:56:29;;;;;;;20.73;11.15;;;;;;;14.64;100.00;101398.03;5026767;28;20021;-72
2023/07/22 01:58:55;;;;;;;20.10;11.05;;;;;;;14.68;100.00;101404.06;5029148;28;20037;-73
2023/07/22 02:01:20;;;;;;;19.45;9.85;;;;;;;14.65;100.00;101402.41;5029236;28;20025;-70
2023/07/22 02:03:46;;;;;;;20.10;10.05;;;;;;;14.65;100.00;101396.22;5027207;28;20040;-68
2023/07/22 02:06:11;;;;;;;15.90;8.85;;;;;;;14.65;100.00;101404.19;5027134;28;20405;-70
2023/07/22 02:08:37;;;;;;;17.10;9.38;;;;;;;14.62;100.00;101401.66;5027720;28;20033;-71
2023/07/22 02:11:04;;;;;;;15.63;8.65;;;;;;;14.59;100.00;101401.78;5027006;28;20025;-71
2023/07/22 02:13:30;;;;;;;14.20;8.68;;;;;;;14.55;100.00;101395.75;5027636;28;20049;-72
2023/07/22 02:15:55;;;;;;;17.55;9.80;;;;;;;14.53;100.00;101389.66;5028187;28;20021;-67
2023/07/22 02:18:21;;;;;;;15.50;9.23;;;;;;;14.51;100.00;101387.06;5027236;28;20029;-74
2023/07/22 02:20:46;;;;;;;18.33;9.65;;;;;;;14.49;100.00;101391.56;5028420;28;20030;-73
2023/07/22 02:23:12;;;;;;;14.98;8.85;;;;;;;14.49;100.00;101391.56;5028074;28;20460;-73
2023/07/22 02:25:37;;;;;;;14.82;8.32;;;;;;;14.47;100.00;101388.13;5028821;28;20144;-72
2023/07/22 02:28:03;;;;;;;13.50;8.20;;;;;;;14.47;100.00;101392.53;5027191;28;20360;-73
2023/07/22 02:30:28;;;;;;;14.25;8.55;;;;;;;14.42;100.00;101389.25;5028322;28;20031;-69
2023/07/22 02:32:54;;;;;;;12.45;7.82;;;;;;;14.43;100.00;101390.94;5027607;28;20116;-71
2023/07/22 02:35:19;;;;;;;12.27;7.28;;;;;;;14.39;100.00;101385.78;5028012;28;20032;-70
2023/07/22 02:37:45;;;;;;;10.30;7.10;;;;;;;14.39;100.00;101382.28;5027452;28;20036;-72
2023/07/22 02:40:13;;;;;;;11.05;7.32;;;;;;;14.38;100.00;101369.94;5027757;28;20025;-72
2023/07/22 02:42:39;;;;;;;10.87;7.13;;;;;;;14.39;100.00;101377.81;5027247;28;20068;-71
2023/07/22 02:45:05;;;;;;;9.68;7.22;;;;;;;14.39;100.00;101379.63;5028518;28;20029;-71
2023/07/22 02:47:32;;;;;;;16.73;7.70;;;;;;;14.43;100.00;101375.03;5028131;28;20449;-72
2023/07/22 02:49:58;;;;;;;12.70;7.03;;;;;;;14.41;100.00;101372.47;5027793;28;20030;-72
2023/07/22 02:52:23;;;;;;;10.98;6.78;;;;;;;14.40;100.00;101371.63;5028944;28;20365;-68
2023/07/22 02:55:08;;;;;;;10.57;6.90;;;;;;;14.41;100.00;101375.09;5022968;28;20530;-72
2023/07/22 02:57:34;;;;;;;12.23;7.20;;;;;;;14.43;100.00;101372.41;5007094;28;20037;-70
2023/07/22 03:00:03;;;;;;;12.52;7.05;;;;;;;14.42;100.00;101370.69;5008016;28;20588;-72
2023/07/22 03:02:29;;;;;;;12.27;6.75;;;;;;;14.45;100.00;101373.22;5008203;28;20385;-69
2023/07/22 03:04:54;;;;;;;10.82;6.30;;;;;;;14.47;100.00;101372.22;5007853;28;20041;-70
2023/07/22 03:07:21;;;;;;;12.35;6.57;;;;;;;14.55;100.00;101369.25;5007864;28;20022;-73
2023/07/22 03:09:47;;;;;;;14.07;7.20;;;;;;;14.56;100.00;101370.09;5007294;28;20080;-73
2023/07/22 03:12:12;;;;;;;11.80;6.65;;;;;;;14.53;100.00;101373.72;5005089;28;20061;-74
2023/07/22 03:14:38;;;;;;;9.30;6.13;;;;;;;14.50;100.00;101368.56;5007101;28;20042;-65
2023/07/22 03:17:03;;;;;;;9.45;6.22;;;;;;;14.51;100.00;101372.97;5007448;28;20383;-73
2023/07/22 03:19:29;;;;;;;9.60;6.28;;;;;;;14.53;100.00;101376.38;5006645;28;20040;-72
2023/07/22 03:21:55;;;;;;;9.73;6.68;;;;;;;14.52;100.00;101382.63;5008545;28;20080;-74
2023/07/22 03:24:20;;;;;;;11.55;5.57;;;;;;;14.50;100.00;101382.69;5008520;28;20034;-74
2023/07/22 03:26:45;;;;;;;10.13;6.35;;;;;;;14.51;100.00;101384.41;5007227;28;20536;-74
2023/07/22 03:29:11;;;;;;;10.55;6.22;;;;;;;14.56;100.00;101380.69;5017068;28;20017;-74
2023/07/22 03:31:36;;;;;;;7.97;5.90;;;;;;;14.52;100.00;101380.84;5027286;28;20586;-73
2023/07/22 03:34:01;;;;;;;9.27;5.70;;;;;;;14.57;100.00;101383.28;5026791;28;20037;-71
2023/07/22 03:36:27;;;;;;;9.30;5.95;;;;;;;14.53;100.00;101384.34;5028383;28;20049;-71
2023/07/22 03:38:52;;;;;;;9.50;6.20;;;;;;;14.55;100.00;101397.53;5028001;28;20514;-73
2023/07/22 03:41:18;;;;;;;13.73;6.50;;;;;;;14.57;100.00;101388.56;5013530;28;20038;-72
2023/07/22 03:43:43;;;;;;;11.05;6.80;;;;;;;14.57;100.00;101396.53;5007052;28;20069;-71
2023/07/22 03:46:08;;;;;;;9.75;6.38;;;;;;;14.58;100.00;101398.28;5008802;28;20091;-71
2023/07/22 03:48:34;;;;;;;12.98;7.13;;;;;;;14.57;100.00;101393.03;5011297;28;20034;-73
2023/07/22 03:50:59;;;;;;;12.90;6.55;;;;;;;14.59;100.00;101392.03;5011961;28;20022;-72
2023/07/22 03:53:25;;;;;;;11.68;6.57;;;;;;;14.63;100.00;101387.50;5011948;28;20083;-73
2023/07/22 03:55:50;;;;;;;10.95;6.60;;;;;;;14.64;100.00;101395.38;5010541;28;20026;-74
2023/07/22 03:58:16;;;;;;;10.38;6.22;;;;;;;14.64;100.00;101390.06;4996409;28;20026;-68
2023/07/22 04:00:41;;;;;;;8.70;6.25;;;;;;;14.65;100.00;101397.09;5030140;28;20086;-72
2023/07/22 04:03:06;;;;;;;8.77;5.97;;;;;;;14.65;100.00;101394.44;5028353;28;20029;-73
2023/07/22 04:05:32;;;;;;;7.15;5.90;;;;;;;14.67;100.00;101391.72;5030668;28;20033;-73
2023/07/22 04:07:57;;;;;;;7.88;5.63;;;;;;;14.72;100.00;101394.19;5031190;28;20361;-70
2023/07/22 04:10:22;;;;;;;9.18;5.47;;;;;;;14.82;100.00;101390.25;5030688;28;20049;-72
2023/07/22 04:12:48;;;;;;;9.13;5.70;;;;;;;14.81;100.00;101391.16;5029467;28;20021;-75
2023/07/22 04:15:15;;;;;;;10.10;5.72;;;;;;;14.91;100.00;101387.16;5029409;28;20045;-74
2023/07/22 04:17:40;;;;;;;9.13;6.40;;;;;;;14.95;100.00;101382.59;5029498;28;20025;-74
2023/07/22 04:20:08;;;;;;;10.38;5.35;;;;;;;14.98;100.00;101381.59;5030419;28;20550;-73
2023/07/22 04:22:33;;;;;;;9.50;6.35;;;;;;;14.97;100.00;101379.88;5028936;28;20036;-71
2023/07/22 04:24:59;;;;;;;8.35;6.03;;;;;;;15.02;100.00;101385.88;5030829;28;20038;-68
2023/07/22 04:27:26;;;;;;;8.27;5.15;;;;;;;15.05;100.00;101379.56;5029840;28;20021;-70
2023/07/22 04:29:52;;;;;;;10.88;6.15;;;;;;;15.07;100.00;101381.19;5029710;28;20025;-73
2023/07/22 04:32:17;;;;;;;13.82;7.05;;;;;;;15.16;100.00;101390.53;5027923;28;20403;-73
2023/07/22 04:34:42;;;;;;;11.70;6.90;;;;;;;15.21;100.00;101377.94;5030136;28;20017;-67
2023/07/22 04:37:08;;;;;;;14.95;7.78;;;;;;;15.31;100.00;101382.81;5029313;28;20451;-73
2023/07/22 04:39:34;;;;;;;15.75;8.73;;;;;;;15.39;100.00;101378.88;5029885;28;20036;-75
2023/07/22 04:41:59;;;;;;;22.00;11.02;;;;;;;15.49;100.00;101376.69;5027239;28;20040;-72
2023/07/22 04:44:25;;;;;;;22.85;11.30;;;;;;;15.59;100.00;101376.25;5029581;28;20403;-74
2023/07/22 04:46:50;;;;;;;21.20;10.93;;;;;;;15.66;100.00;101383.00;5029080;28;20175;-75
2023/07/22 04:49:17;;;;;;;25.17;11.50;;;;;;;15.72;100.00;101376.53;5029617;28;20079;-76
2023/07/22 04:51:46;;;;;;;24.08;12.75;;;;;;;15.83;100.00;101373.38;5027211;28;20808;-71
2023/07/22 04:54:11;;;;;;;27.15;13.52;;;;;;;15.87;100.00;101383.75;5029437;28;20104;-74
2023/07/22 04:56:37;;;;;;;33.25;15.15;;;;;;;15.94;100.00;101378.16;5027479;28;20082;-71
2023/07/22 04:59:03;;;;;;;27.40;14.13;;;;;;;16.04;100.00;101375.03;5024826;28;20584;-72
2023/07/22 05:01:28;;;;;;;32.45;15.80;;;;;;;16.10;100.00;101376.50;5011555;28;20868;-66
2023/07/22 05:03:55;;;;;;;29.42;15.48;;;;;;;16.22;100.00;101374.22;5022418;28;20030;-75
2023/07/22 05:06:20;;;;;;;27.15;15.68;;;;;;;16.26;100.00;101367.78;5027659;28;20013;-75
2023/07/22 05:08:46;;;;;;;33.05;15.77;;;;;;;16.34;100.00;101370.06;5028640;28;20039;-70
2023/07/22 05:11:11;;;;;;;34.72;17.42;;;;;;;16.39;100.00;101381.31;5010316;28;20025;-69
2023/07/22 05:13:37;;;;;;;39.50;17.25;;;;;;;16.43;100.00;101382.88;5022982;28;20524;-64
2023/07/22 05:16:02;;;;;;;32.75;17.00;;;;;;;16.49;100.00;101387.91;5027575;28;20034;-69
2023/07/22 05:18:27;;;;;;;41.53;18.17;;;;;;;16.45;100.00;101377.50;5020815;28;20815;-70
2023/07/22 05:20:53;;;;;;;37.92;18.55;;;;;;;16.48;100.00;101378.22;5023134;28;20029;-72
2023/07/22 05:23:18;;;;;;;36.75;18.58;;;;;;;16.54;100.00;101371.72;5015796;28;20104;-71
2023/07/22 05:25:43;;;;;;;33.03;17.67;;;;;;;16.63;100.00;101376.56;5028078;28;20502;-70
2023/07/22 05:28:09;;;;;;;36.88;17.63;;;;;;;16.67;100.00;101372.81;5028682;28;20018;-72
2023/07/22 05:30:34;;;;;;;33.22;17.40;;;;;;;16.75;100.00;101371.56;5020141;28;20065;-74
2023/07/22 05:32:59;;;;;;;35.88;18.45;;;;;;;16.75;100.00;101376.88;5022178;28;20391;-72
2023/07/22 05:35:25;;;;;;;33.28;18.52;;;;;;;16.82;100.00;101370.28;5013354;28;20465;-72
2023/07/22 05:37:50;;;;;;;35.50;17.60;;;;;;;16.91;100.00;101367.16;5023291;28;20021;-74
2023/07/22 05:40:16;;;;;;;38.20;18.33;;;;;;;16.96;100.00;101369.59;5028276;28;20026;-65
2023/07/22 05:42:41;;;;;;;34.75;17.38;;;;;;;17.11;100.00;101377.72;5028085;28;20376;-73
2023/07/22 05:45:07;;;;;;;33.35;17.73;;;;;;;17.25;100.00;101371.66;5012558;28;20091;-72
2023/07/22 05:47:32;;;;;;;32.33;16.98;;;;;;;17.38;100.00;101371.84;5008958;28;20029;-73
2023/07/22 05:49:58;;;;;;;32.55;17.15;;;;;;;17.31;100.00;101379.34;5009612;28;20033;-75
2023/07/22 05:52:23;;;;;;;33.40;17.25;;;;;;;17.34;100.00;101371.16;5009359;28;20065;-71
2023/07/22 05:54:49;;;;;;;30.42;15.40;;;;;;;17.53;100.00;101373.69;5024965;28;20037;-74
2023/07/22 05:57:15;;;;;;;30.70;16.65;;;;;;;17.64;100.00;101365.09;5028117;28;20580;-74
2023/07/22 05:59:40;;;;;;;35.95;15.52;;;;;;;17.72;100.00;101366.47;5043691;28;20917;-67
2023/07/22 06:02:07;;;;;;;32.13;16.60;;;;;;;17.80;100.00;101362.44;5011028;28;20020;-75
2023/07/22 06:04:32;;;;;;;40.78;16.33;;;;;;;17.83;100.00;101368.53;5026696;28;20064;-68
2023/07/22 06:06:58;;;;;;;27.20;15.88;;;;;;;17.97;100.00;101362.44;5018164;28;20049;-73
2023/07/22 06:09:24;;;;;;;31.42;15.73;;;;;;;18.02;100.00;101363.00;5029316;28;20025;-73
2023/07/22 06:11:49;;;;;;;31.52;15.10;;;;;;;18.08;100.00;101372.44;5014384;28;20029;-73
2023/07/22 06:14:14;;;;;;;26.65;15.15;;;;;;;18.09;100.00;101366.19;5027563;28;20402;-75
2023/07/22 06:16:40;;;;;;;27.17;14.48;;;;;;;18.08;100.00;101367.13;5029021;28;20036;-73
2023/07/22 06:19:05;;;;;;;34.13;16.15;;;;;;;17.96;100.00;101366.88;5028331;28;20105;-69
2023/07/22 06:21:30;;;;;;;36.80;15.57;;;;;;;17.90;100.00;101369.91;5027376;28;20547;-69
2023/07/22 06:23:56;;;;;;;31.73;15.75;;;;;;;18.00;100.00;101359.59;5028613;28;20061;-73
2023/07/22 06:26:21;;;;;;;25.70;14.75;;;;;;;18.17;100.00;101370.16;5027589;28;20140;-71
2023/07/22 06:28:47;;;;;;;31.27;15.50;;;;;;;18.13;100.00;101365.97;5009190;28;20034;-74
2023/07/22 06:31:12;;;;;;;24.92;14.88;;;;;;;18.17;100.00;101362.16;5017674;28;20034;-74
2023/07/22 06:33:38;;;;;;;27.42;13.55;;;;;;;18.27;100.00;101350.97;5021462;28;20026;-66
2023/07/22 06:36:03;;;;;;;28.38;14.63;;;;;;;18.39;100.00;101349.38;5008174;28;20014;-70
2023/07/22 06:38:29;;;;;;;28.17;13.38;;;;;;;18.55;100.00;101355.50;5008236;28;20049;-70
2023/07/22 06:40:55;;;;;;;26.52;14.55;;;;;;;18.50;100.00;101356.72;5027739;28;20021;-72
2023/07/22 06:43:20;;;;;;;34.38;13.88;;;;;;;18.48;100.00;101354.16;5028329;28;20029;-70
2023/07/22 06:45:45;;;;;;;26.42;14.35;;;;;;;18.58;100.00;101353.63;5025786;28;20033;-71
2023/07/22 06:48:11;;;;;;;27.38;12.70;;;;;;;18.60;100.00;101355.22;5018038;28;20464;-74
2023/07/22 06:50:36;;;;;;;26.70;13.55;;;;;;;18.69;100.00;101345.81;5026402;28;20030;-68
2023/07/22 06:53:02;;;;;;;25.60;11.88;;;;;;;18.88;100.00;101348.25;5028382;28;20034;-70
2023/07/22 06:55:27;;;;;;;26.05;13.88;;;;;;;18.91;100.00;101355.19;5027193;28;20104;-70
2023/07/22 06:57:55;;;;;;;31.52;13.60;;;;;;;19.00;100.00;101345.75;5027834;28;20037;-72
2023/07/22 07:00:21;;;;;;;29.05;12.40;;;;;;;19.10;100.00;101354.09;5026427;28;20025;-68
2023/07/22 07:02:46;;;;;;;24.75;12.55;;;;;;;19.04;100.00;101350.81;5026601;28;20356;-72
2023/07/22 07:05:12;;;;;;;28.55;12.63;;;;;;;19.12;100.00;101347.72;5027973;28;20029;-77
2023/07/22 07:07:39;;;;;;;22.48;12.63;;;;;;;19.14;100.00;101356.47;5028075;28;20036;-73
2023/07/22 07:10:05;;;;;;;20.88;12.10;;;;;;;19.26;100.00;101357.50;5020128;28;20018;-76
2023/07/22 07:12:31;;;;;;;23.67;13.52;;;;;;;19.23;100.00;101364.88;5007953;28;20021;-76
2023/07/22 07:14:56;;;;;;;23.40;11.40;;;;;;;19.44;100.00;101368.88;5007402;28;20374;-78
2023/07/22 07:17:22;;;;;;;23.00;12.45;;;;;;;19.48;100.00;101357.97;5008065;28;20057;-74
2023/07/22 07:19:47;;;;;;;28.52;12.35;;;;;;;19.55;100.00;101368.19;5007461;28;20033;-70
2023/07/22 07:22:13;;;;;;;28.23;12.50;;;;;;;19.69;100.00;101363.78;5011785;28;20062;-74
2023/07/22 07:24:38;;;;;;;19.13;10.57;;;;;;;19.80;100.00;101358.56;5011806;28;20369;-73
2023/07/22 07:27:04;;;;;;;28.88;12.80;;;;;;;19.52;100.00;101354.16;5010993;28;20026;-65
2023/07/22 07:29:29;;;;;;;18.25;11.25;;;;;;;19.71;100.00;101361.84;5010387;28;20026;-75
2023/07/22 07:31:54;;;;;;;29.15;13.05;;;;;;;19.36;100.00;101360.47;5011987;28;20021;-74
2023/07/22 07:34:20;;;;;;;23.58;12.50;;;;;;;19.48;100.00;101352.63;5011335;28;20112;-71
2023/07/22 07:36:45;;;;;;;19.65;12.88;;;;;;;19.66;100.00;101350.59;5026411;28;20038;-72
2023/07/22 07:39:11;;;;;;;25.20;12.70;;;;;;;19.75;100.00;101354.50;5011808;28;20758;-75
2023/07/22 07:41:37;;;;;;;24.10;11.43;;;;;;;19.81;100.00;101357.59;5036264;28;20029;-77
2023/07/22 07:44:03;;;;;;;18.30;11.60;;;;;;;19.82;100.00;101355.81;5010513;28;20447;-72
2023/07/22 07:46:29;;;;;;;25.27;12.50;;;;;;;19.65;100.00;101349.72;5011270;28;20169;-69
2023/07/22 07:48:57;;;;;;;25.80;12.52;;;;;;;19.72;100.00;101350.22;5021198;28;20153;-70
2023/07/22 07:51:26;;;;;;;19.20;11.25;;;;;;;19.85;100.00;101349.38;5030906;28;20022;-70
2023/07/22 07:53:52;;;;;;;23.85;12.00;;;;;;;19.75;100.00;101343.78;5030097;28;20105;-76
2023/07/22 07:56:18;;;;;;;20.00;11.50;;;;;;;19.67;100.00;101349.63;5029724;28;20188;-73
2023/07/22 07:58:45;;;;;;;18.02;11.52;;;;;;;19.81;100.00;101346.91;5029367;28;20031;-75
2023/07/22 08:01:11;;;;;;;20.63;11.18;;;;;;;20.18;100.00;101340.13;5019543;28;20030;-74
2023/07/22 08:03:37;;;;;;;23.08;11.55;;;;;;;20.18;100.00;101346.34;5011421;28;20559;-75
2023/07/22 08:06:03;;;;;;;21.25;10.50;;;;;;;20.48;100.00;101352.41;5025838;28;20041;-71
2023/07/22 08:08:28;;;;;;;20.17;10.57;;;;;;;20.24;100.00;101344.19;5010068;28;20496;-64
2023/07/22 08:11:08;;;;;;;18.23;10.73;;;;;;;20.48;100.00;101346.19;5009037;28;20030;-69
2023/07/22 08:13:34;;;;;;;13.82;9.38;;;;;;;20.67;100.00;101346.63;5015096;28;20054;-66
2023/07/22 08:16:04;;;;;;;15.20;8.80;;;;;;;20.77;100.00;101344.16;5016779;28;20165;-74
2023/07/22 08:18:33;;;;;;;20.42;8.48;;;;;;;20.94;100.00;101340.34;5014472;28;20358;-74
2023/07/22 08:20:59;;;;;;;14.07;7.63;;;;;;;21.05;100.00;101346.78;5018490;28;20049;-66
2023/07/22 08:23:24;;;;;;;12.13;6.65;;;;;;;21.21;100.00;101344.72;5030794;28;20063;-72
2023/07/22 08:25:50;;;;;;;11.07;6.45;;;;;;;21.20;100.00;101348.34;5028205;28;20033;-77
2023/07/22 08:28:16;;;;;;;12.93;5.97;;;;;;;21.30;100.00;101347.69;5029985;28;20021;-74
2023/07/22 08:30:42;;;;;;;11.63;5.72;;;;;;;21.25;100.00;101337.31;5029959;28;20029;-76
2023/07/22 08:33:09;;;;;;;14.35;6.15;;;;;;;21.27;100.00;101353.28;5028393;28;20108;-75
2023/07/22 08:35:36;;;;;;;12.30;5.43;;;;;;;21.44;100.00;101336.84;5029692;28;20071;-75
2023/07/22 08:38:03;;;;;;;8.93;5.38;;;;;;;21.18;100.00;101344.94;5028302;28;20032;-70
2023/07/22 08:40:39;;;;;;;9.82;4.70;;;;;;;21.18;100.00;101349.44;5026499;28;20468;-68
2023/07/22 08:43:09;;;;;;;7.88;4.38;;;;;;;21.18;100.00;101344.06;5028825;28;20036;-76
2023/07/22 08:45:36;;;;;;;8.38;4.15;;;;;;;21.10;100.00;101333.88;5008221;28;20230;-74
2023/07/22 08:48:07;;;;;;;6.90;3.75;;;;;;;20.99;100.00;101342.72;5028998;28;20021;-75
2023/07/22 08:50:34;;;;;;;6.93;3.72;;;;;;;21.09;100.00;101337.53;5025582;28;20415;-76
2023/07/22 08:53:01;;;;;;;9.90;4.45;;;;;;;21.05;100.00;101334.25;5029385;28;20663;-74
2023/07/22 08:55:26;;;;;;;5.32;3.65;;;;;;;21.26;100.00;101330.13;5027699;28;20514;-72
2023/07/22 08:57:52;;;;;;;10.52;4.32;;;;;;;21.29;100.00;101329.91;5029465;28;20030;-75
2023/07/22 09:00:18;;;;;;;6.75;3.80;;;;;;;21.32;100.00;101340.41;5028892;28;20033;-72
2023/07/22 09:02:44;;;;;;;6.97;3.33;;;;;;;21.37;100.00;101338.25;5028116;28;20021;-69
2023/07/22 09:05:10;;;;;;;7.65;3.10;;;;;;;21.36;98.74;101339.22;5027877;28;20067;-73
2023/07/22 09:07:36;;;;;;;7.68;3.55;;;;;;;21.38;99.41;101342.66;5029045;28;20056;-76
2023/07/22 09:10:02;;;;;;;7.82;3.42;;;;;;;21.29;99.96;101329.91;5027074;28;20040;-72
2023/07/22 09:12:28;;;;;;;5.05;2.60;;;;;;;21.20;97.82;101345.66;5012439;28;20459;-67
2023/07/22 09:14:53;;;;;;;3.92;1.98;;;;;;;20.97;97.38;101352.66;5015804;28;20132;-73
2023/07/22 09:17:19;;;;;;;5.68;2.28;;;;;;;21.00;96.29;101341.75;5040251;28;20037;-74
2023/07/22 09:19:44;;;;;;;5.68;2.28;;;;;;;21.05;97.25;101344.09;5026391;28;20084;-76
2023/07/22 09:22:10;;;;;;;6.75;2.53;;;;;;;21.38;98.57;101350.69;5022418;28;20021;-70
2023/07/22 09:24:35;;;;;;;7.57;3.67;;;;;;;21.49;100.00;101341.03;5028667;28;20032;-75
2023/07/22 09:27:00;;;;;;;7.88;3.50;;;;;;;21.76;99.84;101332.78;5027433;28;20053;-73
2023/07/22 09:29:39;;;;;;;8.85;3.60;;;;;;;21.95;99.48;101337.63;5028478;28;20069;-74
2023/07/22 09:32:04;;;;;;;;;;;;;;;22.11;97.50;101331.13;5019440;28;20040;-70
2023/07/22 09:34:30;;;;;;;7.70;3.30;;;;;;;22.07;98.01;101335.03;5020031;28;19917;-71
2023/07/22 09:37:03;;;;;;;8.18;3.58;;;;;;;21.79;97.55;101339.78;5022349;28;20041;-69
2023/07/22 09:39:29;;;;;;;7.40;3.28;;;;;;;21.67;98.65;101328.09;5016286;28;20025;-65
2023/07/22 09:41:55;;;;;;;9.30;3.15;;;;;;;21.43;99.50;101336.97;5024428;28;20095;-70
2023/07/22 09:44:20;;;;;;;6.60;2.90;;;;;;;21.11;98.58;101324.03;5025778;28;20071;-71
2023/07/22 09:46:49;;;;;;;4.60;3.00;;;;;;;20.89;98.69;101322.88;5027883;28;20052;-75
2023/07/22 09:49:17;;;;;;;6.10;2.80;;;;;;;20.54;99.68;101327.91;5027183;28;20034;-70
2023/07/22 09:51:42;;;;;;;7.65;2.83;;;;;;;20.31;100.00;101330.31;5025033;28;20013;-73
2023/07/22 09:54:07;;;;;;;5.10;2.63;;;;;;;20.15;100.00;101348.34;5027030;28;20091;-71
2023/07/22 09:56:48;;;;;;;5.20;2.88;;;;;;;19.70;100.00;101362.81;5025600;28;20036;-77
2023/07/22 09:59:13;;;;;;;6.88;3.20;;;;;;;19.48;100.00;101374.00;5027897;28;20688;-72
2023/07/22 10:01:40;;;;;;;6.95;3.30;;;;;;;19.08;100.00;101358.69;5025630;28;20033;-64
2023/07/22 10:04:06;;;;;;;9.93;3.53;;;;;;;18.81;100.00;101363.75;5027736;28;20025;-72
2023/07/22 10:06:33;;;;;;;5.38;2.90;;;;;;;18.61;100.00;101370.31;5026213;28;20025;-74
2023/07/22 10:09:08;;;;;;;7.28;3.40;;;;;;;18.36;100.00;101371.75;5028403;28;20025;-67
2023/07/22 10:11:34;;;;;;;6.05;3.15;;;;;;;18.23;100.00;101370.75;5023378;28;20021;-72
2023/07/22 10:14:02;;;;;;;4.40;3.08;;;;;;;18.17;100.00;101374.63;5025224;28;20171;-69
2023/07/22 10:16:28;;;;;;;5.25;3.00;;;;;;;18.06;100.00;101372.53;5027244;28;20101;-74
2023/07/22 10:18:54;;;;;;;8.93;3.92;;;;;;;17.86;100.00;101371.91;5025667;28;20156;-75
2023/07/22 10:21:20;;;;;;;6.05;3.15;;;;;;;18.04;100.00;101367.31;5024103;28;20096;-71
2023/07/22 10:23:47;;;;;;;6.65;2.90;;;;;;;18.39;100.00;101371.56;5027188;28;20029;-72
2023/07/22 10:26:18;;;;;;;8.32;3.03;;;;;;;18.64;100.00;101375.47;5026965;28;20021;-76
2023/07/22 10:28:44;;;;;;;8.32;3.22;;;;;;;18.83;100.00;101379.69;5023765;28;20121;-76
2023/07/22 10:31:10;;;;;;;6.68;3.00;;;;;;;18.89;100.00;101368.66;5026191;28;20560;-73
2023/07/22 10:33:35;;;;;;;6.68;3.00;;;;;;;18.75;100.00;101377.47;5027312;28;20108;-71
2023/07/22 10:36:06;;;;;;;5.53;3.20;;;;;;;18.58;100.00;101374.97;5025779;28;20495;-72
2023/07/22 10:38:32;;;;;;;6.00;3.55;;;;;;;18.35;100.00;101375.38;5027232;28;20030;-75
2023/07/22 10:40:58;;;;;;;9.90;3.47;;;;;;;18.37;100.00;101381.50;5026916;28;20452;-66
2023/07/22 10:43:31;;;;;;;6.85;3.33;;;;;;;18.49;100.00;101376.38;5027048;28;20029;-75
2023/07/22 10:46:07;;;;;;;7.88;3.33;;;;;;;18.78;100.00;101368.44;5028566;28;20057;-75
2023/07/22 10:48:37;;;;;;;5.68;2.55;;;;;;;19.27;100.00;101371.75;5027975;28;20053;-67
2023/07/22 10:51:09;;;;;;;9.75;2.83;;;;;;;19.74;100.00;101368.81;5027650;28;20032;-74
2023/07/22 10:53:41;;;;;;;6.40;2.63;;;;;;;20.30;100.00;101359.84;5027810;28;20029;-74
2023/07/22 10:56:13;;;;;;;6.95;2.10;;;;;;;20.78;100.00;101369.13;5029287;28;20391;-77
2023/07/22 10:58:44;;;;;;;5.88;2.38;;;;;;;21.24;100.00;101377.59;5031915;28;20032;-68
2023/07/22 11:01:27;;;;;;;4.55;2.40;;;;;;;21.61;100.00;101361.56;5031940;28;20104;-73
2023/07/22 11:04:17;;;;;;;3.85;2.30;;;;;;;22.08;100.00;101361.75;5031876;28;20029;-73
2023/07/22 11:06:46;;;;;;;3.50;1.92;;;;;;;22.18;98.64;101359.22;5031779;28;20030;-71